sensor_id;sensor_type;location;lat;lon;timestamp;temperature;humidity
73322;DHT22;61549;37.044;22.128;2022-12-05T00:02:00;18.00;61.20
73322;DHT22;61549;37.044;22.128;2022-12-05T00:04:26;18.10;61.60
73322;DHT22;61549;37.044;22.128;2022-12-05T00:06:52;18.10;62.20
73322;DHT22;61549;37.044;22.128;2022-12-05T00:09:18;18.10;62.40
73322;DHT22;61549;37.044;22.128;2022-12-05T00:11:44;18.10;62.40
73322;DHT22;61549;37.044;22.128;2022-12-05T00:14:11;18.00;61.90
73322;DHT22;61549;37.044;22.128;2022-12-05T00:16:39;18.00;62.60
73322;DHT22;61549;37.044;22.128;2022-12-05T00:19:06;18.00;63.00
73322;DHT22;61549;37.044;22.128;2022-12-05T00:21:35;18.00;62.40
73322;DHT22;61549;37.044;22.128;2022-12-05T00:24:04;18.00;62.00
73322;DHT22;61549;37.044;22.128;2022-12-05T00:26:31;18.00;62.10
73322;DHT22;61549;37.044;22.128;2022-12-05T00:28:57;18.00;60.70
73322;DHT22;61549;37.044;22.128;2022-12-05T00:31:25;18.00;60.30
73322;DHT22;61549;37.044;22.128;2022-12-05T00:33:52;18.00;61.10
73322;DHT22;61549;37.044;22.128;2022-12-05T00:36:24;18.00;62.20
73322;DHT22;61549;37.044;22.128;2022-12-05T00:38:50;18.00;62.60
73322;DHT22;61549;37.044;22.128;2022-12-05T00:41:20;18.00;62.70
73322;DHT22;61549;37.044;22.128;2022-12-05T00:43:48;17.90;62.90
73322;DHT22;61549;37.044;22.128;2022-12-05T00:46:22;17.90;62.80
73322;DHT22;61549;37.044;22.128;2022-12-05T00:48:48;17.90;62.60
73322;DHT22;61549;37.044;22.128;2022-12-05T00:51:19;17.90;62.80
73322;DHT22;61549;37.044;22.128;2022-12-05T00:53:47;17.80;62.50
73322;DHT22;61549;37.044;22.128;2022-12-05T00:56:15;17.80;62.40
73322;DHT22;61549;37.044;22.128;2022-12-05T00:58:42;17.70;62.70
73322;DHT22;61549;37.044;22.128;2022-12-05T01:03:42;17.70;62.40
73322;DHT22;61549;37.044;22.128;2022-12-05T01:06:09;17.70;61.90
73322;DHT22;61549;37.044;22.128;2022-12-05T01:08:36;17.60;61.80
73322;DHT22;61549;37.044;22.128;2022-12-05T01:11:03;17.70;62.50
73322;DHT22;61549;37.044;22.128;2022-12-05T01:13:30;17.70;62.40
73322;DHT22;61549;37.044;22.128;2022-12-05T01:15:56;17.70;62.80
73322;DHT22;61549;37.044;22.128;2022-12-05T01:18:29;17.60;62.80
73322;DHT22;61549;37.044;22.128;2022-12-05T01:20:55;17.60;62.90
73322;DHT22;61549;37.044;22.128;2022-12-05T01:23:22;17.50;63.20
73322;DHT22;61549;37.044;22.128;2022-12-05T01:25:50;17.40;63.40
73322;DHT22;61549;37.044;22.128;2022-12-05T01:28:16;17.40;63.60
73322;DHT22;61549;37.044;22.128;2022-12-05T01:30:45;17.40;63.90
73322;DHT22;61549;37.044;22.128;2022-12-05T01:33:11;17.30;64.10
73322;DHT22;61549;37.044;22.128;2022-12-05T01:35:39;17.30;64.30
73322;DHT22;61549;37.044;22.128;2022-12-05T01:38:06;17.40;64.40
73322;DHT22;61549;37.044;22.128;2022-12-05T01:40:33;17.30;64.50
73322;DHT22;61549;37.044;22.128;2022-12-05T01:43:00;17.30;64.50
73322;DHT22;61549;37.044;22.128;2022-12-05T01:45:38;17.40;64.70
73322;DHT22;61549;37.044;22.128;2022-12-05T01:48:09;17.50;64.70
73322;DHT22;61549;37.044;22.128;2022-12-05T01:50:37;17.40;64.70
73322;DHT22;61549;37.044;22.128;2022-12-05T01:53:03;17.50;64.80
73322;DHT22;61549;37.044;22.128;2022-12-05T01:55:30;17.40;64.70
73322;DHT22;61549;37.044;22.128;2022-12-05T01:57:56;17.40;64.60
73322;DHT22;61549;37.044;22.128;2022-12-05T02:00:22;17.40;64.50
73322;DHT22;61549;37.044;22.128;2022-12-05T02:02:53;17.40;64.40
73322;DHT22;61549;37.044;22.128;2022-12-05T02:05:23;17.40;64.50
73322;DHT22;61549;37.044;22.128;2022-12-05T02:07:51;17.40;64.50
73322;DHT22;61549;37.044;22.128;2022-12-05T02:10:17;17.40;64.60
73322;DHT22;61549;37.044;22.128;2022-12-05T02:12:44;17.40;64.60
73322;DHT22;61549;37.044;22.128;2022-12-05T02:18:17;17.50;63.80
73322;DHT22;61549;37.044;22.128;2022-12-05T02:24:35;17.70;63.90
73322;DHT22;61549;37.044;22.128;2022-12-05T02:30:16;17.70;64.50
73322;DHT22;61549;37.044;22.128;2022-12-05T02:35:41;17.70;65.10
73322;DHT22;61549;37.044;22.128;2022-12-05T02:43:23;17.70;64.60
73322;DHT22;61549;37.044;22.128;2022-12-05T02:49:16;17.70;64.40
73322;DHT22;61549;37.044;22.128;2022-12-05T02:51:51;17.70;64.40
73322;DHT22;61549;37.044;22.128;2022-12-05T02:54:21;17.70;64.30
73322;DHT22;61549;37.044;22.128;2022-12-05T02:56:48;17.80;64.70
73322;DHT22;61549;37.044;22.128;2022-12-05T02:59:15;17.80;65.10
73322;DHT22;61549;37.044;22.128;2022-12-05T03:01:44;17.80;65.10
73322;DHT22;61549;37.044;22.128;2022-12-05T03:04:11;17.80;65.20
73322;DHT22;61549;37.044;22.128;2022-12-05T03:07:08;17.80;65.70
73322;DHT22;61549;37.044;22.128;2022-12-05T03:09:45;17.80;65.90
73322;DHT22;61549;37.044;22.128;2022-12-05T03:12:22;17.70;65.80
73322;DHT22;61549;37.044;22.128;2022-12-05T03:17:45;17.80;65.00
73322;DHT22;61549;37.044;22.128;2022-12-05T03:20:27;17.70;64.90
73322;DHT22;61549;37.044;22.128;2022-12-05T03:22:59;17.80;65.00
73322;DHT22;61549;37.044;22.128;2022-12-05T03:25:39;17.80;65.30
73322;DHT22;61549;37.044;22.128;2022-12-05T03:28:26;17.80;65.50
73322;DHT22;61549;37.044;22.128;2022-12-05T03:30:57;17.80;65.50
73322;DHT22;61549;37.044;22.128;2022-12-05T03:33:27;17.80;65.70
73322;DHT22;61549;37.044;22.128;2022-12-05T03:36:02;17.80;65.70
73322;DHT22;61549;37.044;22.128;2022-12-05T03:38:36;17.80;65.60
73322;DHT22;61549;37.044;22.128;2022-12-05T03:41:24;17.70;65.30
73322;DHT22;61549;37.044;22.128;2022-12-05T03:49:29;17.80;64.20
73322;DHT22;61549;37.044;22.128;2022-12-05T03:52:32;17.80;64.10
73322;DHT22;61549;37.044;22.128;2022-12-05T03:55:03;17.90;64.30
73322;DHT22;61549;37.044;22.128;2022-12-05T03:57:32;17.90;64.50
73322;DHT22;61549;37.044;22.128;2022-12-05T04:00:05;17.90;65.50
73322;DHT22;61549;37.044;22.128;2022-12-05T04:05:51;17.90;66.30
73322;DHT22;61549;37.044;22.128;2022-12-05T04:08:25;17.90;66.30
73322;DHT22;61549;37.044;22.128;2022-12-05T04:10:55;17.80;66.30
73322;DHT22;61549;37.044;22.128;2022-12-05T04:16:00;17.90;66.30
73322;DHT22;61549;37.044;22.128;2022-12-05T04:18:59;17.90;66.60
73322;DHT22;61549;37.044;22.128;2022-12-05T04:21:32;17.90;66.90
73322;DHT22;61549;37.044;22.128;2022-12-05T04:24:18;17.80;66.80
73322;DHT22;61549;37.044;22.128;2022-12-05T04:27:09;17.80;66.30
73322;DHT22;61549;37.044;22.128;2022-12-05T04:29:44;17.80;66.00
73322;DHT22;61549;37.044;22.128;2022-12-05T04:32:13;17.80;65.90
73322;DHT22;61549;37.044;22.128;2022-12-05T04:34:40;17.80;66.20
73322;DHT22;61549;37.044;22.128;2022-12-05T04:37:15;17.80;66.20
73322;DHT22;61549;37.044;22.128;2022-12-05T04:39:50;17.90;66.00
73322;DHT22;61549;37.044;22.128;2022-12-05T04:42:20;17.90;66.00
73322;DHT22;61549;37.044;22.128;2022-12-05T04:45:01;17.80;66.20
73322;DHT22;61549;37.044;22.128;2022-12-05T04:47:35;17.80;65.80
73322;DHT22;61549;37.044;22.128;2022-12-05T04:50:03;17.80;65.80
73322;DHT22;61549;37.044;22.128;2022-12-05T04:52:32;17.80;65.90
73322;DHT22;61549;37.044;22.128;2022-12-05T04:55:25;17.80;65.60
73322;DHT22;61549;37.044;22.128;2022-12-05T05:00:31;17.70;65.40
73322;DHT22;61549;37.044;22.128;2022-12-05T05:03:04;17.70;65.30
73322;DHT22;61549;37.044;22.128;2022-12-05T05:05:32;17.70;65.40
73322;DHT22;61549;37.044;22.128;2022-12-05T05:07:59;17.70;65.50
73322;DHT22;61549;37.044;22.128;2022-12-05T05:10:43;17.70;65.50
73322;DHT22;61549;37.044;22.128;2022-12-05T05:13:12;17.70;65.30
73322;DHT22;61549;37.044;22.128;2022-12-05T05:15:37;17.60;65.30
73322;DHT22;61549;37.044;22.128;2022-12-05T05:18:03;17.60;65.10
73322;DHT22;61549;37.044;22.128;2022-12-05T05:20:29;17.60;65.00
73322;DHT22;61549;37.044;22.128;2022-12-05T05:22:56;17.60;65.10
73322;DHT22;61549;37.044;22.128;2022-12-05T05:25:23;17.60;65.20
73322;DHT22;61549;37.044;22.128;2022-12-05T05:27:51;17.60;65.30
73322;DHT22;61549;37.044;22.128;2022-12-05T05:30:19;17.60;65.20
73322;DHT22;61549;37.044;22.128;2022-12-05T05:32:45;17.60;65.20
73322;DHT22;61549;37.044;22.128;2022-12-05T05:35:11;17.60;65.10
73322;DHT22;61549;37.044;22.128;2022-12-05T05:37:38;17.60;65.10
73322;DHT22;61549;37.044;22.128;2022-12-05T05:40:06;17.50;64.80
73322;DHT22;61549;37.044;22.128;2022-12-05T05:42:32;17.50;64.60
73322;DHT22;61549;37.044;22.128;2022-12-05T05:44:58;17.50;64.60
73322;DHT22;61549;37.044;22.128;2022-12-05T05:47:24;17.50;64.70
73322;DHT22;61549;37.044;22.128;2022-12-05T05:49:49;17.40;64.80
73322;DHT22;61549;37.044;22.128;2022-12-05T05:52:15;17.40;64.90
73322;DHT22;61549;37.044;22.128;2022-12-05T05:54:41;17.40;65.10
73322;DHT22;61549;37.044;22.128;2022-12-05T05:57:07;17.30;65.20
73322;DHT22;61549;37.044;22.128;2022-12-05T05:59:33;17.30;65.00
73322;DHT22;61549;37.044;22.128;2022-12-05T06:01:59;17.30;65.20
73322;DHT22;61549;37.044;22.128;2022-12-05T06:04:25;17.40;65.40
73322;DHT22;61549;37.044;22.128;2022-12-05T06:06:50;17.30;65.60
73322;DHT22;61549;37.044;22.128;2022-12-05T06:09:16;17.40;65.50
73322;DHT22;61549;37.044;22.128;2022-12-05T06:11:45;17.30;65.70
73322;DHT22;61549;37.044;22.128;2022-12-05T06:14:11;17.40;66.00
73322;DHT22;61549;37.044;22.128;2022-12-05T06:16:37;17.50;66.10
73322;DHT22;61549;37.044;22.128;2022-12-05T06:19:02;17.50;66.20
73322;DHT22;61549;37.044;22.128;2022-12-05T06:21:28;17.60;66.50
73322;DHT22;61549;37.044;22.128;2022-12-05T06:23:54;17.60;66.80
73322;DHT22;61549;37.044;22.128;2022-12-05T06:26:21;17.60;66.50
73322;DHT22;61549;37.044;22.128;2022-12-05T06:28:47;17.60;66.60
73322;DHT22;61549;37.044;22.128;2022-12-05T06:31:20;17.70;67.00
73322;DHT22;61549;37.044;22.128;2022-12-05T06:33:54;17.70;67.20
73322;DHT22;61549;37.044;22.128;2022-12-05T06:36:21;17.80;67.30
73322;DHT22;61549;37.044;22.128;2022-12-05T06:38:47;17.70;67.10
73322;DHT22;61549;37.044;22.128;2022-12-05T06:41:15;17.80;67.00
73322;DHT22;61549;37.044;22.128;2022-12-05T06:43:42;17.90;66.80
73322;DHT22;61549;37.044;22.128;2022-12-05T06:46:09;18.00;66.80
73322;DHT22;61549;37.044;22.128;2022-12-05T06:48:36;18.10;67.20
73322;DHT22;61549;37.044;22.128;2022-12-05T06:51:02;18.10;67.80
73322;DHT22;61549;37.044;22.128;2022-12-05T06:53:28;18.20;68.30
73322;DHT22;61549;37.044;22.128;2022-12-05T06:55:59;18.20;68.60
73322;DHT22;61549;37.044;22.128;2022-12-05T06:58:25;18.30;68.20
73322;DHT22;61549;37.044;22.128;2022-12-05T07:00:52;18.30;67.80
73322;DHT22;61549;37.044;22.128;2022-12-05T07:03:36;18.40;67.30
73322;DHT22;61549;37.044;22.128;2022-12-05T07:06:03;18.50;66.80
73322;DHT22;61549;37.044;22.128;2022-12-05T07:08:30;18.50;66.50
73322;DHT22;61549;37.044;22.128;2022-12-05T07:10:56;18.60;66.40
73322;DHT22;61549;37.044;22.128;2022-12-05T07:13:22;18.70;66.50
73322;DHT22;61549;37.044;22.128;2022-12-05T07:15:49;18.70;66.70
73322;DHT22;61549;37.044;22.128;2022-12-05T07:18:18;18.80;66.20
73322;DHT22;61549;37.044;22.128;2022-12-05T07:20:44;18.90;66.50
73322;DHT22;61549;37.044;22.128;2022-12-05T07:23:19;19.20;66.80
73322;DHT22;61549;37.044;22.128;2022-12-05T07:25:45;19.50;66.10
73322;DHT22;61549;37.044;22.128;2022-12-05T07:28:11;19.80;63.90
73322;DHT22;61549;37.044;22.128;2022-12-05T07:30:37;20.00;62.20
73322;DHT22;61549;37.044;22.128;2022-12-05T07:33:03;20.30;59.10
73322;DHT22;61549;37.044;22.128;2022-12-05T07:35:28;20.40;58.10
73322;DHT22;61549;37.044;22.128;2022-12-05T07:37:54;20.60;58.00
73322;DHT22;61549;37.044;22.128;2022-12-05T07:40:20;20.70;58.00
73322;DHT22;61549;37.044;22.128;2022-12-05T07:42:49;20.80;57.20
73322;DHT22;61549;37.044;22.128;2022-12-05T07:45:21;20.80;57.90
73322;DHT22;61549;37.044;22.128;2022-12-05T07:47:47;20.80;57.60
73322;DHT22;61549;37.044;22.128;2022-12-05T07:50:13;20.70;57.60
73322;DHT22;61549;37.044;22.128;2022-12-05T07:52:40;20.70;60.60
73322;DHT22;61549;37.044;22.128;2022-12-05T07:55:06;20.60;59.50
73322;DHT22;61549;37.044;22.128;2022-12-05T07:57:32;20.60;59.50
73322;DHT22;61549;37.044;22.128;2022-12-05T07:59:58;20.50;58.50
73322;DHT22;61549;37.044;22.128;2022-12-05T08:02:25;20.50;58.30
73322;DHT22;61549;37.044;22.128;2022-12-05T08:04:51;20.40;58.50
73322;DHT22;61549;37.044;22.128;2022-12-05T08:07:17;20.30;58.70
73322;DHT22;61549;37.044;22.128;2022-12-05T08:09:42;20.30;58.90
73322;DHT22;61549;37.044;22.128;2022-12-05T08:12:08;20.30;59.50
73322;DHT22;61549;37.044;22.128;2022-12-05T08:14:34;20.30;59.30
73322;DHT22;61549;37.044;22.128;2022-12-05T08:17:01;20.30;59.00
73322;DHT22;61549;37.044;22.128;2022-12-05T08:22:34;20.30;59.30
73322;DHT22;61549;37.044;22.128;2022-12-05T08:25:00;20.30;59.30
73322;DHT22;61549;37.044;22.128;2022-12-05T08:27:26;20.40;59.60
73322;DHT22;61549;37.044;22.128;2022-12-05T08:29:53;20.40;59.20
73322;DHT22;61549;37.044;22.128;2022-12-05T08:32:19;20.40;59.50
73322;DHT22;61549;37.044;22.128;2022-12-05T08:34:45;20.50;59.30
73322;DHT22;61549;37.044;22.128;2022-12-05T08:37:11;20.70;58.60
73322;DHT22;61549;37.044;22.128;2022-12-05T08:39:36;20.80;58.40
73322;DHT22;61549;37.044;22.128;2022-12-05T08:42:02;20.90;58.10
73322;DHT22;61549;37.044;22.128;2022-12-05T08:44:28;20.90;57.10
73322;DHT22;61549;37.044;22.128;2022-12-05T08:46:55;21.00;56.50
73322;DHT22;61549;37.044;22.128;2022-12-05T08:49:21;21.10;57.40
73322;DHT22;61549;37.044;22.128;2022-12-05T08:51:46;21.20;58.10
73322;DHT22;61549;37.044;22.128;2022-12-05T08:54:12;21.30;58.10
73322;DHT22;61549;37.044;22.128;2022-12-05T08:56:39;21.60;55.30
73322;DHT22;61549;37.044;22.128;2022-12-05T08:59:05;21.80;54.60
73322;DHT22;61549;37.044;22.128;2022-12-05T09:01:31;21.90;54.60
73322;DHT22;61549;37.044;22.128;2022-12-05T09:03:59;21.90;54.10
73322;DHT22;61549;37.044;22.128;2022-12-05T09:06:25;21.90;54.20
73322;DHT22;61549;37.044;22.128;2022-12-05T09:08:53;21.90;53.90
73322;DHT22;61549;37.044;22.128;2022-12-05T09:11:45;22.20;54.10
73322;DHT22;61549;37.044;22.128;2022-12-05T09:14:13;22.50;53.20
73322;DHT22;61549;37.044;22.128;2022-12-05T09:16:40;22.70;52.70
73322;DHT22;61549;37.044;22.128;2022-12-05T09:19:16;23.00;52.10
73322;DHT22;61549;37.044;22.128;2022-12-05T09:21:43;23.20;52.30
73322;DHT22;61549;37.044;22.128;2022-12-05T09:24:10;23.30;51.50
73322;DHT22;61549;37.044;22.128;2022-12-05T09:26:37;23.30;50.60
73322;DHT22;61549;37.044;22.128;2022-12-05T09:29:03;23.40;50.70
73322;DHT22;61549;37.044;22.128;2022-12-05T09:31:29;23.50;50.90
73322;DHT22;61549;37.044;22.128;2022-12-05T09:36:54;23.70;50.90
73322;DHT22;61549;37.044;22.128;2022-12-05T09:39:19;23.70;50.50
73322;DHT22;61549;37.044;22.128;2022-12-05T09:41:53;23.80;49.30
73322;DHT22;61549;37.044;22.128;2022-12-05T09:47:16;23.70;50.40
73322;DHT22;61549;37.044;22.128;2022-12-05T09:53:21;23.70;50.50
73322;DHT22;61549;37.044;22.128;2022-12-05T09:56:04;23.70;50.00
73322;DHT22;61549;37.044;22.128;2022-12-05T10:01:33;24.00;49.90
73322;DHT22;61549;37.044;22.128;2022-12-05T10:06:33;24.20;49.50
73322;DHT22;61549;37.044;22.128;2022-12-05T10:12:37;24.30;47.40
73322;DHT22;61549;37.044;22.128;2022-12-05T10:21:01;24.70;47.40
73322;DHT22;61549;37.044;22.128;2022-12-05T10:23:37;25.00;45.50
73322;DHT22;61549;37.044;22.128;2022-12-05T10:26:10;25.10;47.20
73322;DHT22;61549;37.044;22.128;2022-12-05T10:31:20;25.40;46.00
73322;DHT22;61549;37.044;22.128;2022-12-05T10:33:52;25.40;46.30
73322;DHT22;61549;37.044;22.128;2022-12-05T10:36:22;25.30;46.40
73322;DHT22;61549;37.044;22.128;2022-12-05T10:38:48;25.20;45.70
73322;DHT22;61549;37.044;22.128;2022-12-05T10:41:15;25.10;46.70
73322;DHT22;61549;37.044;22.128;2022-12-05T10:43:43;25.10;47.00
73322;DHT22;61549;37.044;22.128;2022-12-05T10:46:15;25.00;48.00
73322;DHT22;61549;37.044;22.128;2022-12-05T10:48:41;25.00;47.20
73322;DHT22;61549;37.044;22.128;2022-12-05T10:51:15;24.90;47.70
73322;DHT22;61549;37.044;22.128;2022-12-05T10:53:45;24.90;46.70
73322;DHT22;61549;37.044;22.128;2022-12-05T10:59:46;25.00;47.00
73322;DHT22;61549;37.044;22.128;2022-12-05T11:02:38;24.90;47.00
73322;DHT22;61549;37.044;22.128;2022-12-05T11:05:05;24.70;47.40
73322;DHT22;61549;37.044;22.128;2022-12-05T11:07:45;24.90;47.40
73322;DHT22;61549;37.044;22.128;2022-12-05T11:10:29;25.00;47.20
73322;DHT22;61549;37.044;22.128;2022-12-05T11:12:58;24.90;46.30
73322;DHT22;61549;37.044;22.128;2022-12-05T11:15:29;24.70;47.10
73322;DHT22;61549;37.044;22.128;2022-12-05T11:18:00;24.60;46.80
73322;DHT22;61549;37.044;22.128;2022-12-05T11:20:41;24.60;46.80
73322;DHT22;61549;37.044;22.128;2022-12-05T11:23:25;24.40;46.70
73322;DHT22;61549;37.044;22.128;2022-12-05T11:25:53;24.50;47.10
73322;DHT22;61549;37.044;22.128;2022-12-05T11:28:27;24.50;46.80
73322;DHT22;61549;37.044;22.128;2022-12-05T11:31:09;24.60;46.70
73322;DHT22;61549;37.044;22.128;2022-12-05T11:34:20;24.60;45.30
73322;DHT22;61549;37.044;22.128;2022-12-05T11:37:08;24.50;46.20
73322;DHT22;61549;37.044;22.128;2022-12-05T11:39:36;24.40;46.70
73322;DHT22;61549;37.044;22.128;2022-12-05T11:45:11;24.60;46.40
73322;DHT22;61549;37.044;22.128;2022-12-05T11:48:05;24.80;46.20
73322;DHT22;61549;37.044;22.128;2022-12-05T11:51:07;25.00;45.70
73322;DHT22;61549;37.044;22.128;2022-12-05T12:02:38;25.30;46.60
73322;DHT22;61549;37.044;22.128;2022-12-05T12:13:16;25.50;44.90
73322;DHT22;61549;37.044;22.128;2022-12-05T12:16:12;25.30;44.50
73322;DHT22;61549;37.044;22.128;2022-12-05T12:32:27;24.50;46.20
73322;DHT22;61549;37.044;22.128;2022-12-05T12:35:07;24.40;46.10
73322;DHT22;61549;37.044;22.128;2022-12-05T12:40:48;24.30;46.30
73322;DHT22;61549;37.044;22.128;2022-12-05T12:46:31;24.00;46.30
73322;DHT22;61549;37.044;22.128;2022-12-05T12:52:14;24.00;47.90
73322;DHT22;61549;37.044;22.128;2022-12-05T12:55:14;24.00;48.20
73322;DHT22;61549;37.044;22.128;2022-12-05T13:01:20;24.00;47.10
73322;DHT22;61549;37.044;22.128;2022-12-05T13:04:01;24.10;48.00
73322;DHT22;61549;37.044;22.128;2022-12-05T13:06:34;24.00;48.10
73322;DHT22;61549;37.044;22.128;2022-12-05T13:09:29;23.90;48.70
73322;DHT22;61549;37.044;22.128;2022-12-05T13:11:55;23.80;48.70
73322;DHT22;61549;37.044;22.128;2022-12-05T13:14:24;23.90;49.70
73322;DHT22;61549;37.044;22.128;2022-12-05T13:16:53;23.70;49.90
73322;DHT22;61549;37.044;22.128;2022-12-05T13:21:56;23.70;50.20
73322;DHT22;61549;37.044;22.128;2022-12-05T13:24:25;23.70;50.40
73322;DHT22;61549;37.044;22.128;2022-12-05T13:26:52;23.70;49.20
73322;DHT22;61549;37.044;22.128;2022-12-05T13:29:52;23.70;49.60
73322;DHT22;61549;37.044;22.128;2022-12-05T13:32:28;23.70;49.30
73322;DHT22;61549;37.044;22.128;2022-12-05T13:35:00;23.70;49.30
73322;DHT22;61549;37.044;22.128;2022-12-05T13:37:33;23.70;49.70
73322;DHT22;61549;37.044;22.128;2022-12-05T13:40:28;23.60;50.00
73322;DHT22;61549;37.044;22.128;2022-12-05T13:43:19;23.70;50.00
73322;DHT22;61549;37.044;22.128;2022-12-05T13:46:07;23.70;50.00
73322;DHT22;61549;37.044;22.128;2022-12-05T13:48:42;23.70;50.10
73322;DHT22;61549;37.044;22.128;2022-12-05T13:51:10;23.60;50.00
73322;DHT22;61549;37.044;22.128;2022-12-05T13:53:47;23.40;50.10
73322;DHT22;61549;37.044;22.128;2022-12-05T13:58:52;23.30;50.70
73322;DHT22;61549;37.044;22.128;2022-12-05T14:03:57;23.20;51.10
73322;DHT22;61549;37.044;22.128;2022-12-05T14:11:33;23.20;50.00
73322;DHT22;61549;37.044;22.128;2022-12-05T14:13:59;23.20;50.30
73322;DHT22;61549;37.044;22.128;2022-12-05T14:19:29;23.10;50.50
73322;DHT22;61549;37.044;22.128;2022-12-05T14:24:52;23.10;51.10
73322;DHT22;61549;37.044;22.128;2022-12-05T14:27:44;23.20;50.30
73322;DHT22;61549;37.044;22.128;2022-12-05T14:30:22;23.10;51.20
73322;DHT22;61549;37.044;22.128;2022-12-05T14:32:51;23.10;51.20
73322;DHT22;61549;37.044;22.128;2022-12-05T14:35:28;23.10;53.50
73322;DHT22;61549;37.044;22.128;2022-12-05T14:38:06;23.10;51.90
73322;DHT22;61549;37.044;22.128;2022-12-05T14:40:43;23.00;51.30
73322;DHT22;61549;37.044;22.128;2022-12-05T14:43:28;22.90;52.30
73322;DHT22;61549;37.044;22.128;2022-12-05T14:50:53;22.60;52.60
73322;DHT22;61549;37.044;22.128;2022-12-05T14:55:49;22.50;54.30
73322;DHT22;61549;37.044;22.128;2022-12-05T14:58:33;22.40;55.20
73322;DHT22;61549;37.044;22.128;2022-12-05T15:01:05;22.20;56.30
73322;DHT22;61549;37.044;22.128;2022-12-05T15:06:45;21.90;57.30
73322;DHT22;61549;37.044;22.128;2022-12-05T15:12:00;21.60;58.70
73322;DHT22;61549;37.044;22.128;2022-12-05T15:14:33;21.40;59.10
73322;DHT22;61549;37.044;22.128;2022-12-05T15:17:02;21.30;59.40
73322;DHT22;61549;37.044;22.128;2022-12-05T15:19:52;21.20;59.50
73322;DHT22;61549;37.044;22.128;2022-12-05T15:22:21;21.10;59.80
73322;DHT22;61549;37.044;22.128;2022-12-05T15:24:49;21.00;60.00
73322;DHT22;61549;37.044;22.128;2022-12-05T15:27:15;20.90;60.30
73322;DHT22;61549;37.044;22.128;2022-12-05T15:29:41;20.90;60.40
73322;DHT22;61549;37.044;22.128;2022-12-05T15:35:05;20.80;60.60
73322;DHT22;61549;37.044;22.128;2022-12-05T15:37:40;20.80;60.60
73322;DHT22;61549;37.044;22.128;2022-12-05T15:40:12;20.70;60.80
73322;DHT22;61549;37.044;22.128;2022-12-05T15:42:52;20.80;60.80
73322;DHT22;61549;37.044;22.128;2022-12-05T15:45:25;20.80;60.70
73322;DHT22;61549;37.044;22.128;2022-12-05T15:47:55;20.70;60.70
73322;DHT22;61549;37.044;22.128;2022-12-05T15:50:49;20.70;60.80
73322;DHT22;61549;37.044;22.128;2022-12-05T15:56:14;20.50;61.30
73322;DHT22;61549;37.044;22.128;2022-12-05T15:59:23;20.50;61.40
73322;DHT22;61549;37.044;22.128;2022-12-05T16:01:56;20.50;61.30
73322;DHT22;61549;37.044;22.128;2022-12-05T16:04:47;20.50;62.20
73322;DHT22;61549;37.044;22.128;2022-12-05T16:07:14;20.50;61.50
73322;DHT22;61549;37.044;22.128;2022-12-05T16:09:42;20.50;61.80
73322;DHT22;61549;37.044;22.128;2022-12-05T16:14:53;20.50;61.80
73322;DHT22;61549;37.044;22.128;2022-12-05T16:17:20;20.40;61.90
73322;DHT22;61549;37.044;22.128;2022-12-05T16:19:46;20.40;62.00
73322;DHT22;61549;37.044;22.128;2022-12-05T16:24:45;20.40;62.10
73322;DHT22;61549;37.044;22.128;2022-12-05T16:27:41;20.30;61.90
73322;DHT22;61549;37.044;22.128;2022-12-05T16:32:38;20.20;61.90
73322;DHT22;61549;37.044;22.128;2022-12-05T16:35:32;20.20;61.70
73322;DHT22;61549;37.044;22.128;2022-12-05T16:38:21;20.20;61.50
73322;DHT22;61549;37.044;22.128;2022-12-05T16:45:49;20.20;61.40
73322;DHT22;61549;37.044;22.128;2022-12-05T16:48:26;20.10;61.40
73322;DHT22;61549;37.044;22.128;2022-12-05T16:51:18;20.10;61.10
73322;DHT22;61549;37.044;22.128;2022-12-05T16:53:47;20.00;61.00
73322;DHT22;61549;37.044;22.128;2022-12-05T16:56:28;19.90;61.10
73322;DHT22;61549;37.044;22.128;2022-12-05T16:58:56;19.90;60.90
73322;DHT22;61549;37.044;22.128;2022-12-05T17:01:23;19.80;60.90
73322;DHT22;61549;37.044;22.128;2022-12-05T17:03:51;19.80;60.60
73322;DHT22;61549;37.044;22.128;2022-12-05T17:06:21;19.80;60.40
73322;DHT22;61549;37.044;22.128;2022-12-05T17:08:52;19.80;60.30
73322;DHT22;61549;37.044;22.128;2022-12-05T17:11:22;19.80;60.30
73322;DHT22;61549;37.044;22.128;2022-12-05T17:13:49;19.80;60.80
73322;DHT22;61549;37.044;22.128;2022-12-05T17:16:16;19.70;60.20
73322;DHT22;61549;37.044;22.128;2022-12-05T17:18:43;19.70;60.20
73322;DHT22;61549;37.044;22.128;2022-12-05T17:21:14;19.60;60.20
73322;DHT22;61549;37.044;22.128;2022-12-05T17:23:40;19.70;60.20
73322;DHT22;61549;37.044;22.128;2022-12-05T17:26:13;19.60;60.20
73322;DHT22;61549;37.044;22.128;2022-12-05T17:28:39;19.60;60.20
73322;DHT22;61549;37.044;22.128;2022-12-05T17:31:08;19.60;60.10
73322;DHT22;61549;37.044;22.128;2022-12-05T17:33:34;19.60;60.00
73322;DHT22;61549;37.044;22.128;2022-12-05T17:36:00;19.60;59.80
73322;DHT22;61549;37.044;22.128;2022-12-05T17:38:25;19.60;59.60
73322;DHT22;61549;37.044;22.128;2022-12-05T17:40:51;19.60;59.40
73322;DHT22;61549;37.044;22.128;2022-12-05T17:43:17;19.60;59.60
73322;DHT22;61549;37.044;22.128;2022-12-05T17:45:43;19.60;59.60
73322;DHT22;61549;37.044;22.128;2022-12-05T17:48:13;19.70;59.70
73322;DHT22;61549;37.044;22.128;2022-12-05T17:50:40;19.70;59.60
73322;DHT22;61549;37.044;22.128;2022-12-05T17:53:15;19.60;59.50
73322;DHT22;61549;37.044;22.128;2022-12-05T17:55:41;19.60;59.50
73322;DHT22;61549;37.044;22.128;2022-12-05T17:58:07;19.70;59.60
73322;DHT22;61549;37.044;22.128;2022-12-05T18:00:33;19.70;59.50
73322;DHT22;61549;37.044;22.128;2022-12-05T18:02:59;19.70;60.30
73322;DHT22;61549;37.044;22.128;2022-12-05T18:05:25;19.70;59.90
73322;DHT22;61549;37.044;22.128;2022-12-05T18:07:51;19.70;59.80
73322;DHT22;61549;37.044;22.128;2022-12-05T18:10:19;19.70;59.60
73322;DHT22;61549;37.044;22.128;2022-12-05T18:12:46;19.70;59.30
73322;DHT22;61549;37.044;22.128;2022-12-05T18:15:13;19.70;59.10
73322;DHT22;61549;37.044;22.128;2022-12-05T18:17:40;19.70;59.10
73322;DHT22;61549;37.044;22.128;2022-12-05T18:20:08;19.70;59.20
73322;DHT22;61549;37.044;22.128;2022-12-05T18:22:34;19.70;59.20
73322;DHT22;61549;37.044;22.128;2022-12-05T18:25:00;19.70;59.30
73322;DHT22;61549;37.044;22.128;2022-12-05T18:27:28;19.70;59.20
73322;DHT22;61549;37.044;22.128;2022-12-05T18:29:54;19.60;59.30
73322;DHT22;61549;37.044;22.128;2022-12-05T18:32:21;19.60;59.40